• Join FlightAware (Why Join?)
  • Login
  • US Flag 
03:52PM EDT


 

Airport Tracker/Info


-or-


 

Live Flight TrackerFlight Track Log ✈ SWA1880 ✈ 21-May-2012 ✈ KTPA - KBNA

Flight Track Log - Related Links

Times and Time Zones

All times are in EDT time to prevent confusion due to time zone crossing. See the SWA1880 flight status page for this flight to view local times or setup timezone preferences in your user account.

Time Position Orientation Groundspeed Altitude Reporting Facility
EDT Latitude Longitude Course Direction KTS MPH feet Rate Location/Type
02:55PM 27.9833 -82.5333 360° North 153 176 800  Level Tampa TRACON
02:57PM 28.0500 -82.5333 339° North 215 247 3,500 3,120 Climbing Tampa TRACON
02:59PM 28.1850 -82.5936 334° Northwest 282 325 10,500 3,240 Climbing Jacksonville Center
03:00PM 28.2686 -82.6406 334° Northwest 290 334 13,200 3,060 Climbing Jacksonville Center
03:01PM 28.3583 -82.6897 331° Northwest 332 382 16,700 3,300 Climbing Jacksonville Center
03:02PM 28.4483 -82.7461 335° Northwest 353 406 19,800 2,760 Climbing Jacksonville Center
03:03PM 28.5464 -82.7981 344° North 370 426 22,300 2,400 Climbing Jacksonville Center
03:04PM 28.6550 -82.8333 350° North 389 448 24,700 1,800 Climbing Jacksonville Center
03:05PM 28.7697 -82.8569 349° North 402 463 26,000 900 Climbing Jacksonville Center
03:06PM 28.8844 -82.8831 349° North 411 473 26,500 1,140 Climbing Jacksonville Center
03:07PM 29.0056 -82.9092 348° North 421 484 28,300 1,680 Climbing Jacksonville Center
03:08PM 29.1308 -82.9400 349° North 433 498 29,900 840 Climbing Jacksonville Center
03:09PM 29.2581 -82.9686 349° North 452 520 30,000 780 Climbing Jacksonville Center
03:10PM 29.3833 -82.9975 348° North 457 526 31,500 1,680 Climbing Jacksonville Center
03:11PM 29.5086 -83.0286 345° North 457 526 33,400 2,100 Climbing Jacksonville Center
03:12PM 29.6297 -83.0647 338° Northwest 455 524 35,700 2,040 Climbing Jacksonville Center
03:13PM 29.7422 -83.1175 338° Northwest 440 506 37,500 1,140 Climbing Jacksonville Center
03:14PM 29.8508 -83.1681 338° Northwest 426 490 38,000 240 Climbing Jacksonville Center
03:15PM 29.9633 -83.2211 338° Northwest 416 479 38,000  Level Jacksonville Center
03:16PM 30.0633 -83.2669 338° Northwest 421 484 38,000  Level Jacksonville Center
03:17PM 30.1739 -83.3178 338° Northwest 421 484 38,000  Level Jacksonville Center
03:18PM 30.2844 -83.3689 337° Northwest 421 484 38,000  Level Jacksonville Center
03:19PM 30.3950 -83.4225 338° Northwest 421 484 38,000  Level Jacksonville Center
03:20PM 30.5053 -83.4736 337° Northwest 421 484 38,000  Level Jacksonville Center
03:21PM 30.6158 -83.5275 339° North 421 484 38,000  Level Jacksonville Center
03:22PM 30.7261 -83.5764 338° Northwest 426 490 38,000  Level Jacksonville Center
03:23PM 30.8386 -83.6281 336° Northwest 426 490 38,000  Level Jacksonville Center
03:24PM 30.9489 -83.6847 338° Northwest 432 497 38,000  Level Jacksonville Center
03:25PM 31.0592 -83.7367 338° Northwest 432 497 38,000  Level Jacksonville Center
03:26PM 31.1736 -83.7908 337° Northwest 432 497 38,000  Level Jacksonville Center
03:27PM 31.4042 -83.9028 337° Northwest 444 511 38,000  Level Atlanta Center
03:28PM 31.5169 -83.9586 347° North 438 504 38,000  Level Atlanta Center
03:29PM 31.6256 -83.9878 350° North 438 504 38,000  Level Atlanta Center
03:30PM 31.7508 -84.0144 350° North 438 504 38,000  Level Atlanta Center
03:31PM 31.8739 -84.0389 349° North 448 516 38,000  Level Atlanta Center
03:32PM 31.9969 -84.0658 349° North 448 516 38,000  Level Atlanta Center
03:33PM 32.1203 -84.0953 350° North 448 516 38,000  Level Atlanta Center
03:34PM 32.2392 -84.1200 348° North 448 516 38,000  Level Atlanta Center
03:35PM 32.3603 -84.1494 350° North 448 516 38,000  Level Atlanta Center
03:36PM 32.4833 -84.1742 348° North 448 516 38,000  Level Atlanta Center
03:37PM 32.6044 -84.2042 349° North 448 516 38,000  Level Atlanta Center
03:38PM 32.7253 -84.2314 350° North 448 516 38,000  Level Atlanta Center
03:39PM 32.8422 -84.2564 349° North 443 510 38,000  Level Atlanta Center
03:40PM 32.9633 -84.2839 348° North 443 510 38,000  Level Atlanta Center
03:41PM 33.0925 -84.3164 350° North 437 503 38,000  Level Atlanta Center
03:42PM 33.2114 -84.3417 349° North 432 497 38,000  Level Atlanta Center
03:43PM 33.3325 -84.3694 349° North 432 497 38,000 600 Level Atlanta Center
03:44PM 33.4514 -84.3972 350° North 432 497 39,200 960 Climbing Atlanta Center
03:45PM 33.5725 -84.4228 347° North 432 497 40,000 360 Climbing Atlanta Center
03:46PM 33.6789 -84.4533 347° North 432 497 40,000  Level Atlanta Center
03:47PM 33.8017 -84.4864 346° North 432 497 40,000  Level Atlanta Center
03:48PM 33.9311 -84.5244 332° Northwest 443 510 40,000  Level Atlanta Center
03:49PM 34.0331 -84.5903 334° Northwest 443 510 40,000  Level Atlanta Center
03:50PM 34.1642 -84.6664 333° Northwest 456 525 40,000 -480 Level Atlanta Center
03:51PM 34.2722 -84.7325 334° Northwest 456 525 39,100 -960 Descending Atlanta Center
03:52PM 34.3825 -84.7964 333° Northwest 446 513 38,100 -1,020 Descending Atlanta Center
03:53PM 34.4886 -84.8628 333° Northwest 435 501 37,100 -960 Descending Atlanta Center
03:54PM 34.5986 -84.9294 304° West 435 501 36,200 -900 Descending Atlanta Center
03:55PM 34.6522 -85.0261 294° West 418 481 35,400 -600 Descending Atlanta Center
03:56PM 34.7053 -85.1683 298° West 415 478 35,000 -300 Descending Atlanta Center
03:57PM 34.7625 -85.3006 305° West 428 493 34,900 -1,620 Descending Atlanta Center
03:58PM 34.8322 -85.4206 320° Northwest 434 499 31,800 -2,460 Descending Atlanta Center
03:59PM 34.9292 -85.5183 329° Northwest 439 505 30,000 -2,640 Descending Atlanta Center
04:03PM 35.3222 -85.8094 328° Northwest 425 489 19,400 -2,820 Descending Memphis Center
04:04PM 35.4211 -85.8858 329° Northwest 425 489 16,800 -2,580 Descending Memphis Center
04:05PM 35.5111 -85.9522 327° Northwest 410 472 14,300 -2,640 Descending Memphis Center
04:06PM 35.5925 -86.0169 327° Northwest 373 429 11,600 -1,680 Descending Memphis Center
04:07PM 35.6678 -86.0769 313° West 344 396 11,000 -300 Descending Memphis Center
04:08PM 35.7222 -86.1481 303° West 300 345 11,000 -600 Level Memphis Center
04:09PM 35.7667 -86.2328 304° West 293 337 9,800 -1,380 Descending Memphis Center
04:10PM 35.8089 -86.3100 304° West 282 325 8,300 -1,500 Descending Memphis Center
04:11PM 35.8511 -86.3875 305° West 282 325 6,900 -1,500 Descending Memphis Center
04:12PM 35.8931 -86.4622 303° West 272 313 5,400 -1,500 Descending Memphis Center
04:13PM 35.9331 -86.5397 304° West 272 313 3,900 -1,260 Descending Memphis Center
04:14PM 35.9728 -86.6122 302° West 272 313 2,900 -660 Descending Memphis Center
04:15PM 36.0036 -86.6725 335° Northwest 253 291 2,600 -420 Descending Memphis Center
04:16PM 36.0442 -86.6964 18° North 163 188 2,100 -660 Descending Memphis Center
04:17PM 36.0811 -86.6819 16° North 143 165 1,300 -780 Descending Memphis Center
04:18PM 36.1225 -86.6672 16° North 143 165 600 -720 Descending Memphis Center